createdAt,value
2019-05-10T07:43:07.147Z,12.33
2019-05-10T07:45:37.091Z,12.70
2019-05-10T07:48:10.219Z,13.95
2019-05-10T07:50:42.610Z,11.10
2019-05-10T07:53:16.528Z,12.25
2019-05-10T07:55:41.935Z,12.18
2019-05-10T07:58:12.247Z,12.70
2019-05-10T08:00:44.590Z,11.65
2019-05-10T08:03:17.516Z,12.73
2019-05-10T08:05:46.153Z,11.88
2019-05-10T08:08:15.968Z,12.23
2019-05-10T08:10:45.525Z,12.23
2019-05-10T08:13:15.320Z,10.88
2019-05-10T08:15:46.346Z,11.60
2019-05-10T08:18:23.431Z,11.40
2019-05-10T08:20:53.917Z,14.03
2019-05-10T08:23:23.897Z,12.40
2019-05-10T08:25:49.659Z,12.50
2019-05-10T08:28:19.200Z,11.55
2019-05-10T08:30:53.949Z,11.53
2019-05-10T08:33:20.022Z,11.63
2019-05-10T08:35:52.363Z,13.25
2019-05-10T08:38:21.890Z,12.55
2019-05-10T08:40:52.721Z,14.28
2019-05-10T08:43:24.651Z,13.37
2019-05-10T08:45:53.965Z,14.18
2019-05-10T08:48:27.618Z,13.53
2019-05-10T08:50:57.592Z,12.20
2019-05-10T08:53:32.764Z,12.45
2019-05-10T08:56:07.412Z,13.28
2019-05-10T09:01:16.260Z,16.40
2019-05-10T09:03:35.258Z,12.07
2019-05-10T09:06:11.782Z,17.27
2019-05-10T09:08:36.048Z,15.28
2019-05-10T09:11:06.927Z,17.82
2019-05-10T09:13:41.169Z,17.77
2019-05-10T09:16:08.442Z,15.80
2019-05-10T09:18:42.686Z,14.83
2019-05-10T09:21:10.810Z,17.02
2019-05-10T09:23:42.615Z,16.97
2019-05-10T09:26:16.208Z,15.20
2019-05-10T09:28:47.487Z,15.48
2019-05-10T09:31:21.801Z,13.53
2019-05-10T09:33:49.477Z,14.25
2019-05-10T09:36:23.152Z,14.87
2019-05-10T09:38:49.335Z,14.25
2019-05-10T09:41:18.898Z,15.58
2019-05-10T09:43:50.364Z,17.73
2019-05-10T09:46:19.743Z,15.70
2019-05-10T09:48:54.477Z,14.13
2019-05-10T09:51:27.928Z,11.90
2019-05-10T09:53:51.856Z,14.38
2019-05-10T09:56:21.457Z,13.13
2019-05-10T09:58:51.057Z,9.98
2019-05-10T10:01:21.765Z,10.38
2019-05-10T10:03:51.605Z,9.57
2019-05-10T10:06:21.131Z,8.23
2019-05-10T10:08:53.336Z,8.10
2019-05-10T10:11:21.936Z,6.92
2019-05-10T10:13:59.170Z,7.65
2019-05-10T10:16:22.696Z,7.70
2019-05-10T10:18:52.289Z,7.22
2019-05-10T10:21:30.588Z,7.28
2019-05-10T10:23:53.103Z,7.55
2019-05-10T10:26:22.685Z,6.53
2019-05-10T10:28:55.167Z,6.30
2019-05-10T10:31:29.509Z,6.22
2019-05-10T10:34:02.060Z,6.65
2019-05-10T10:36:27.578Z,5.95
2019-05-10T10:38:57.198Z,6.00
2019-05-10T10:41:31.612Z,5.95
2019-05-10T10:43:58.466Z,4.85
2019-05-10T10:46:28.321Z,5.00
2019-05-10T10:48:57.903Z,5.33
2019-05-10T10:51:32.428Z,4.83
2019-05-10T10:53:58.664Z,4.33
2019-05-10T10:56:28.250Z,3.75
2019-05-10T10:58:58.063Z,3.58
2019-05-10T11:01:37.845Z,4.40
2019-05-10T11:04:05.930Z,3.50
2019-05-10T11:06:30.370Z,2.72
2019-05-10T11:09:01.717Z,3.27
2019-05-10T11:11:38.637Z,2.67
2019-05-10T11:14:07.379Z,2.92
2019-05-10T11:16:33.609Z,3.65
2019-05-10T11:19:03.657Z,2.75
2019-05-10T11:21:34.408Z,3.08
2019-05-10T11:24:03.926Z,3.42
2019-05-10T11:26:36.791Z,3.25
2019-05-10T11:29:04.699Z,6.85
2019-05-10T11:31:34.227Z,3.27
2019-05-10T11:34:06.026Z,4.00
2019-05-10T11:36:35.362Z,3.25
2019-05-10T11:39:22.315Z,3.15
2019-05-10T11:41:38.195Z,2.95
2019-05-10T11:44:09.723Z,2.85
2019-05-10T11:49:10.658Z,3.87
2019-05-10T11:51:41.356Z,3.00
2019-05-10T11:54:11.252Z,3.47
2019-05-10T11:56:41.246Z,4.08
2019-05-10T11:59:12.444Z,3.75
2019-05-10T12:01:42.240Z,3.47
2019-05-10T12:04:22.687Z,4.03
2019-05-10T12:06:50.127Z,3.67
2019-05-10T12:09:14.291Z,3.05
2019-05-10T12:11:51.673Z,2.65
2019-05-10T12:14:15.039Z,3.17
2019-05-10T12:16:44.572Z,2.50
2019-05-10T12:19:19.827Z,3.40
2019-05-10T12:21:45.365Z,1.55
2019-05-10T12:24:32.818Z,1.85
2019-05-10T12:29:17.448Z,2.00
2019-05-10T12:31:47.629Z,2.17
2019-05-10T12:34:20.686Z,1.72
2019-05-10T12:36:51.974Z,2.08
2019-05-10T12:39:21.659Z,1.95
2019-05-10T12:41:52.996Z,1.87
2019-05-10T12:44:22.461Z,2.10
2019-05-10T12:46:54.156Z,2.90
2019-05-10T12:49:23.205Z,1.85
2019-05-10T12:51:52.768Z,1.82
2019-05-10T12:54:23.860Z,2.65
2019-05-10T12:56:53.554Z,2.20
2019-05-10T12:59:23.180Z,2.80
2019-05-10T13:01:52.729Z,1.90
2019-05-10T13:04:24.631Z,2.65
2019-05-10T13:06:53.527Z,2.02
2019-05-10T13:09:35.865Z,2.77
2019-05-10T13:12:03.123Z,2.95
2019-05-10T13:14:28.952Z,2.37
2019-05-10T13:16:57.207Z,3.40
2019-05-10T13:19:26.746Z,3.25
2019-05-10T13:21:58.779Z,2.47
2019-05-10T13:24:27.499Z,3.77
2019-05-10T13:26:57.195Z,2.00
2019-05-10T13:29:26.754Z,2.20
2019-05-10T13:31:57.739Z,2.40
2019-05-10T13:34:27.274Z,2.67
2019-05-10T13:36:57.174Z,6.20
2019-05-10T13:39:46.127Z,2.10
2019-05-10T13:42:15.666Z,3.62
2019-05-10T13:44:45.206Z,3.35
2019-05-10T13:47:14.766Z,2.15
2019-05-10T13:49:48.019Z,2.98
2019-05-10T13:52:15.543Z,2.27
2019-05-10T13:54:45.070Z,3.50
2019-05-10T13:57:14.619Z,3.33
2019-05-10T13:59:48.927Z,2.20
2019-05-10T14:02:15.462Z,3.33
2019-05-10T14:04:44.995Z,3.40
2019-05-10T14:07:14.610Z,5.75
2019-05-10T14:09:44.155Z,2.00
2019-05-10T14:12:16.325Z,3.80
2019-05-10T14:14:44.904Z,3.17
2019-05-10T14:17:14.695Z,3.05
2019-05-10T14:19:44.305Z,2.85
2019-05-10T14:22:13.898Z,3.33
2019-05-10T14:24:46.773Z,3.27
2019-05-10T14:27:14.640Z,3.10
2019-05-10T14:29:44.173Z,2.98
2019-05-10T14:32:13.697Z,2.52
2019-05-10T14:34:44.116Z,4.78
2019-05-10T14:37:19.229Z,2.47
2019-05-10T14:39:45.288Z,4.15
2019-05-10T14:42:14.813Z,3.12
2019-05-10T14:44:44.441Z,1.67
2019-05-10T14:47:14.061Z,2.85
2019-05-10T14:49:47.014Z,2.20
2019-05-10T14:52:15.182Z,3.37
2019-05-10T14:54:49.926Z,3.27
2019-05-10T14:57:15.922Z,1.77
2019-05-10T14:59:45.837Z,1.82
2019-05-10T15:02:16.772Z,1.50
2019-05-10T15:04:47.245Z,1.27
2019-05-10T15:07:17.077Z,3.15
2019-05-10T15:09:47.009Z,2.60
2019-05-10T15:12:22.244Z,1.62
2019-05-10T15:14:47.754Z,1.85
2019-05-10T15:17:19.777Z,0.95
2019-05-10T15:19:57.989Z,1.20
2019-05-10T15:22:23.013Z,1.75
2019-05-10T15:24:51.169Z,1.30
2019-05-10T15:27:21.558Z,2.00
2019-05-10T15:29:51.931Z,1.50
2019-05-10T15:32:21.461Z,2.15
2019-05-10T15:35:05.190Z,2.87
2019-05-10T15:37:22.224Z,2.33
2019-05-10T15:39:51.927Z,1.60
2019-05-10T15:42:22.060Z,1.82
2019-05-10T15:44:51.751Z,2.15
2019-05-10T15:47:22.393Z,1.65
2019-05-10T15:49:54.745Z,1.80
2019-05-10T15:52:23.650Z,1.57
2019-05-10T15:54:53.350Z,2.47
2019-05-10T15:57:22.941Z,3.50
2019-05-10T15:59:56.708Z,2.47
2019-05-10T16:02:23.855Z,1.65
2019-05-10T16:04:53.379Z,1.92
2019-05-10T16:07:22.914Z,2.58
2019-05-10T16:09:54.463Z,2.40
2019-05-10T16:12:23.657Z,1.55
2019-05-10T16:14:53.190Z,1.87
2019-05-10T16:17:24.014Z,2.12
2019-05-10T16:19:59.614Z,1.73
2019-05-10T16:22:29.999Z,3.42
2019-05-10T16:25:00.993Z,2.37
2019-05-10T16:27:27.468Z,2.60
2019-05-10T16:29:57.162Z,2.60
2019-05-10T16:32:29.250Z,3.72
2019-05-10T16:34:57.930Z,3.92
2019-05-10T16:37:27.490Z,2.65
2019-05-10T16:39:57.190Z,1.90
2019-05-10T16:42:27.650Z,3.85
2019-05-10T16:44:58.230Z,2.37
2019-05-10T16:47:27.775Z,2.30
2019-05-10T16:49:57.322Z,2.10
2019-05-10T16:52:28.154Z,2.08
2019-05-10T16:55:03.342Z,2.45
2019-05-10T16:57:31.991Z,1.95
2019-05-10T17:00:02.157Z,3.83
2019-05-10T17:02:31.474Z,2.98
2019-05-10T17:05:01.391Z,3.80
2019-05-10T17:07:30.917Z,3.15
2019-05-10T17:10:00.500Z,2.80
2019-05-10T17:12:30.105Z,3.10
2019-05-10T17:15:02.721Z,3.42
2019-05-10T17:17:31.211Z,2.47
2019-05-10T17:20:07.307Z,3.20
2019-05-10T17:22:33.751Z,2.77
2019-05-10T17:25:07.410Z,2.60
2019-05-10T17:27:37.353Z,4.80
2019-05-10T17:30:06.881Z,4.42
2019-05-10T17:32:36.422Z,2.35
2019-05-10T17:35:07.578Z,2.85
2019-05-10T17:37:37.527Z,2.60
2019-05-10T17:40:10.312Z,2.40
2019-05-10T17:42:41.182Z,3.17
2019-05-10T17:45:10.099Z,2.72
2019-05-10T17:47:39.625Z,2.08
2019-05-10T17:50:09.142Z,2.37
2019-05-10T17:52:38.698Z,4.08
2019-05-10T17:55:11.052Z,3.37
2019-05-10T17:57:39.443Z,3.30
2019-05-10T18:00:09.101Z,2.80
2019-05-10T18:02:38.626Z,2.50
2019-05-10T18:05:08.473Z,3.05
2019-05-10T18:07:38.186Z,3.33
2019-05-10T18:10:08.107Z,2.62
2019-05-10T18:12:37.639Z,3.02
2019-05-10T18:15:07.629Z,2.55
2019-05-10T18:17:37.331Z,1.62
2019-05-10T18:20:07.321Z,2.10
2019-05-10T18:22:43.255Z,2.30
2019-05-10T18:25:19.451Z,1.92
2019-05-10T18:27:39.681Z,3.80
2019-05-10T18:30:09.206Z,4.92
2019-05-10T18:32:38.754Z,2.50
2019-05-10T18:35:14.829Z,3.20
2019-05-10T18:37:41.765Z,3.17
2019-05-10T18:40:11.669Z,2.60
2019-05-10T18:42:41.209Z,2.67
2019-05-10T18:45:10.749Z,1.95
2019-05-10T18:47:40.334Z,1.92
2019-05-10T18:50:09.862Z,2.75
2019-05-10T18:52:39.397Z,2.05
2019-05-10T18:55:08.931Z,1.80
2019-05-10T18:57:38.461Z,2.50
2019-05-10T19:00:08.075Z,3.12
2019-05-10T19:02:37.660Z,2.80
2019-05-10T19:05:07.207Z,2.27
2019-05-10T19:07:37.192Z,1.70
2019-05-10T19:10:07.567Z,2.27
2019-05-10T19:12:38.038Z,2.00
2019-05-10T19:15:12.680Z,3.27
2019-05-10T19:17:40.339Z,3.65
2019-05-10T19:20:16.113Z,2.72
2019-05-10T19:22:42.774Z,3.42
2019-05-10T19:25:14.432Z,3.50
2019-05-10T19:27:47.881Z,3.60
2019-05-10T19:30:20.233Z,4.72
2019-05-10T19:32:51.262Z,3.70
2019-05-10T19:35:17.534Z,2.83
2019-05-10T19:37:47.069Z,3.35
2019-05-10T19:40:16.608Z,3.20
2019-05-10T19:42:49.278Z,4.30
2019-05-10T19:45:19.112Z,3.72
2019-05-10T19:47:49.862Z,4.12
2019-05-10T19:50:24.293Z,5.40
2019-05-10T19:52:51.339Z,4.80
2019-05-10T19:55:21.768Z,4.40
2019-05-10T19:57:54.803Z,3.55
2019-05-10T20:00:22.691Z,3.70
2019-05-10T20:02:52.219Z,3.95
2019-05-10T20:05:22.689Z,3.62
2019-05-10T20:07:52.215Z,4.58
2019-05-10T20:10:21.736Z,5.30
2019-05-10T20:12:51.262Z,4.37
2019-05-10T20:15:20.863Z,4.08
2019-05-10T20:17:50.450Z,3.50
2019-05-10T20:20:20.000Z,4.45
2019-05-10T20:22:49.511Z,3.98
2019-05-10T20:25:19.036Z,4.97
2019-05-10T20:27:48.561Z,4.50
2019-05-10T20:30:18.075Z,4.75
2019-05-10T20:32:48.849Z,4.03
2019-05-10T20:35:18.416Z,4.72
2019-05-10T20:38:00.808Z,4.92
2019-05-10T20:40:19.162Z,5.20
2019-05-10T20:42:48.717Z,5.50
2019-05-10T20:45:18.251Z,4.80
2019-05-10T20:47:47.777Z,4.67
2019-05-10T20:50:17.776Z,5.28
2019-05-10T20:52:47.293Z,5.97
2019-05-10T20:55:17.678Z,4.28
2019-05-10T20:57:47.275Z,5.05
2019-05-10T21:00:18.099Z,4.60
2019-05-10T21:02:47.629Z,4.87
2019-05-10T21:05:17.366Z,4.37
2019-05-10T21:07:46.910Z,5.50
2019-05-10T21:10:16.438Z,4.90
2019-05-10T21:12:45.962Z,5.75
2019-05-10T21:15:15.516Z,5.95
2019-05-10T21:17:45.040Z,4.90
2019-05-10T21:20:14.582Z,4.40
2019-05-10T21:22:44.105Z,4.70
2019-05-10T21:25:13.642Z,5.33
2019-05-10T21:27:43.192Z,4.97
2019-05-10T21:30:12.906Z,5.10
2019-05-10T21:32:42.430Z,5.53
2019-05-10T21:35:11.984Z,6.10
2019-05-10T21:37:41.513Z,5.58
2019-05-10T21:40:11.038Z,5.80
2019-05-10T21:42:40.568Z,6.30
2019-05-10T21:45:10.089Z,5.47
2019-05-10T21:47:51.167Z,6.55
2019-05-10T21:50:10.867Z,8.08
2019-05-10T21:52:40.437Z,6.12
2019-05-10T21:55:09.986Z,7.08
2019-05-10T21:57:39.590Z,7.00
2019-05-10T22:00:09.212Z,6.85
2019-05-10T22:02:40.052Z,6.90
2019-05-10T22:05:09.630Z,6.58
2019-05-10T22:07:39.177Z,7.22
2019-05-10T22:10:09.068Z,7.00
2019-05-10T22:12:38.595Z,6.25
2019-05-10T22:15:08.162Z,6.60
2019-05-10T22:17:37.950Z,7.53
2019-05-10T22:20:07.770Z,8.70
2019-05-10T22:22:37.471Z,8.40
2019-05-10T22:25:06.985Z,7.08
2019-05-10T22:27:36.517Z,8.70
2019-05-10T22:30:07.187Z,7.22
2019-05-10T22:32:37.294Z,7.75
2019-05-10T22:35:06.921Z,7.17
2019-05-10T22:37:36.496Z,8.23
2019-05-10T22:40:06.043Z,7.65
2019-05-10T22:42:35.611Z,7.80
2019-05-10T22:45:06.001Z,7.50
2019-05-10T22:47:35.521Z,7.12
2019-05-10T22:50:08.246Z,7.08
2019-05-10T22:52:38.691Z,7.90
2019-05-10T22:55:08.241Z,7.95
2019-05-10T22:57:37.802Z,7.30
2019-05-10T23:00:07.941Z,7.28
2019-05-10T23:02:37.493Z,8.33
2019-05-10T23:05:07.013Z,7.90
2019-05-10T23:07:36.537Z,7.42
2019-05-10T23:10:06.742Z,8.23
2019-05-10T23:12:36.274Z,7.62
2019-05-10T23:15:06.474Z,7.30
2019-05-10T23:17:36.010Z,7.00
2019-05-10T23:20:05.561Z,7.03
2019-05-10T23:22:35.094Z,7.60
2019-05-10T23:25:06.890Z,6.35
2019-05-10T23:30:05.713Z,6.70
2019-05-10T23:32:35.235Z,6.95
2019-05-10T23:35:06.105Z,8.35
2019-05-10T23:37:35.625Z,8.33
2019-05-10T23:40:06.222Z,6.67
2019-05-10T23:42:35.822Z,7.05
2019-05-10T23:45:08.257Z,6.75
2019-05-10T23:47:38.148Z,7.03
2019-05-10T23:50:07.695Z,7.40
2019-05-10T23:52:37.519Z,6.80
2019-05-10T23:55:07.040Z,7.17
2019-05-10T23:57:36.553Z,8.25
